Altenburg, Missouri
Current Conditions -  °F | °C
As of 9:52 AM on Thursday 29 Jan 2015 (Local Time) from KMDH Reporting Station
Overcast Overcast  
Wind Chill: 34°   Ceiling: 2500
Heat Index: 43°   Visibility: 10mi
Dew Point: 33°   Wind: 24mph
Humidity: 68%   Direction: 320°NW
Pressure: 30.09"   Gusts: 35mph
Location:  37.63°N, 89.59°W
Report Text: KMDH 291552Z 32021G30KT 10SM OVC025 06/01 A3009 RMK AO2 PK WND 32030/1550 SLP191 T00610006
Loading
Personal Weather Stations






























Interactive Weather Map New forecast layout! Learn more

10-Day Weather Forecast

Advertisements
Track Severe Weather on mobile